Time;durP1;ratioP1;P1;durP2;ratioP2;P2;SDS_P1;SDS_P2;PMS_P1;PMS_P2;Temp;Humidity;BMP_temperature;BMP_pressure;BME280_temperature;BME280_humidity;BME280_pressure;Samples;Min_cycle;Max_cycle;Signal;HPM_P1;HPM_P2
2021/12/30 00:02:20;;;;;;;22.45;8.77;;;9.10;99.90;;;;;;5089492;28;20036;-84
2021/12/30 00:04:46;;;;;;;26.35;8.32;;;9.10;99.90;;;;;;5089814;28;20058;-84
2021/12/30 00:07:12;;;;;;;25.08;7.45;;;9.10;99.90;;;;;;5089751;28;20036;-84
2021/12/30 00:09:38;;;;;;;27.92;8.07;;;9.10;99.90;;;;;;5091892;28;20028;-82
2021/12/30 00:12:04;;;;;;;28.40;8.15;;;9.10;99.90;;;;;;5096155;28;20504;-82
2021/12/30 00:14:30;;;;;;;28.45;8.25;;;9.10;99.90;;;;;;5094599;28;20028;-81
2021/12/30 00:16:56;;;;;;;35.70;9.27;;;9.10;99.90;;;;;;5079593;28;20213;-82
2021/12/30 00:19:22;;;;;;;33.38;8.15;;;9.10;99.90;;;;;;5078106;28;20171;-82
2021/12/30 00:21:47;;;;;;;28.02;7.95;;;9.10;99.90;;;;;;5095305;28;20044;-82
2021/12/30 00:24:13;;;;;;;25.02;6.35;;;9.10;99.90;;;;;;5076795;28;20075;-83
2021/12/30 00:26:38;;;;;;;30.20;8.73;;;9.00;99.90;;;;;;5094580;28;20028;-82
2021/12/30 00:29:04;;;;;;;40.13;9.23;;;9.00;99.90;;;;;;5094397;28;20096;-82
2021/12/30 00:31:30;;;;;;;32.03;9.00;;;8.90;99.90;;;;;;5078666;28;20024;-82
2021/12/30 00:33:56;;;;;;;34.70;9.85;;;8.90;99.90;;;;;;5094402;28;20043;-82
2021/12/30 00:36:22;;;;;;;31.02;8.88;;;9.00;99.90;;;;;;5077698;28;20491;-83
2021/12/30 00:38:48;;;;;;;25.40;8.85;;;9.00;99.90;;;;;;5094746;28;20482;-84
2021/12/30 00:41:13;;;;;;;38.33;12.32;;;9.00;99.90;;;;;;5093839;28;20042;-84
2021/12/30 00:43:39;;;;;;;36.95;10.45;;;8.90;99.90;;;;;;5094524;28;20036;-82
2021/12/30 00:46:07;;;;;;;45.38;10.15;;;8.90;99.90;;;;;;5077059;28;20040;-82
2021/12/30 00:48:33;;;;;;;42.55;11.23;;;8.90;99.90;;;;;;5095003;28;20043;-83
2021/12/30 00:50:59;;;;;;;37.22;11.52;;;8.90;99.90;;;;;;5093841;28;20059;-82
2021/12/30 00:53:25;;;;;;;32.55;9.35;;;8.90;99.90;;;;;;5093341;28;20222;-82
2021/12/30 00:55:50;;;;;;;32.60;8.73;;;8.90;99.90;;;;;;5093281;28;20063;-83
2021/12/30 00:58:16;;;;;;;41.13;9.77;;;9.00;99.90;;;;;;5094131;28;20036;-82
2021/12/30 01:00:43;;;;;;;35.22;12.65;;;8.90;99.90;;;;;;5093691;28;20067;-82
2021/12/30 01:03:09;;;;;;;40.80;10.23;;;8.90;99.90;;;;;;5092992;28;20044;-82
2021/12/30 01:05:35;;;;;;;37.80;9.88;;;8.90;99.90;;;;;;5092451;28;20050;-85
2021/12/30 01:08:03;;;;;;;37.35;11.15;;;8.90;99.90;;;;;;5087410;28;20379;-83
2021/12/30 01:10:30;;;;;;;35.75;8.27;;;8.90;99.90;;;;;;5089816;28;20040;-83
2021/12/30 01:12:56;;;;;;;30.77;7.93;;;8.90;99.90;;;;;;5077045;28;20486;-82
2021/12/30 01:15:35;;;;;;;37.28;9.05;;;8.80;99.90;;;;;;5093981;28;20028;-82
2021/12/30 01:20:47;;;;;;;36.28;7.80;;;8.70;99.90;;;;;;5094062;28;20178;-82
2021/12/30 01:23:13;;;;;;;32.25;8.50;;;8.60;99.90;;;;;;5093717;28;20427;-82
2021/12/30 01:25:38;;;;;;;36.13;9.52;;;8.70;99.90;;;;;;5094337;28;20035;-82
2021/12/30 01:28:04;;;;;;;31.88;9.50;;;8.70;99.90;;;;;;5092838;28;20039;-83
2021/12/30 01:30:29;;;;;;;28.58;7.85;;;8.70;99.90;;;;;;5077612;28;20035;-82
2021/12/30 01:32:55;;;;;;;48.42;11.85;;;8.70;99.90;;;;;;5075257;28;20073;-82
2021/12/30 01:35:25;;;;;;;38.70;9.30;;;8.70;99.90;;;;;;5093295;28;20043;-82
2021/12/30 01:37:51;;;;;;;30.08;6.68;;;8.70;99.90;;;;;;5093127;28;20051;-82
2021/12/30 01:40:17;;;;;;;30.15;7.75;;;8.70;99.90;;;;;;5093433;28;20040;-82
2021/12/30 01:42:43;;;;;;;36.25;8.18;;;8.70;99.90;;;;;;5092876;28;20118;-83
2021/12/30 01:45:10;;;;;;;23.38;6.70;;;8.70;99.90;;;;;;5094190;28;20055;-82
2021/12/30 01:47:42;;;;;;;26.05;7.15;;;8.70;99.90;;;;;;5084971;28;20047;-82
2021/12/30 01:50:09;;;;;;;31.10;7.88;;;8.60;99.90;;;;;;5093326;28;20103;-82
2021/12/30 01:52:34;;;;;;;26.05;7.18;;;8.60;99.90;;;;;;5076007;28;20036;-83
2021/12/30 01:55:00;;;;;;;27.75;6.43;;;8.60;99.90;;;;;;5076720;28;20067;-82
2021/12/30 01:57:26;;;;;;;24.13;6.55;;;8.50;99.90;;;;;;5092731;28;20068;-82
2021/12/30 01:59:51;;;;;;;34.17;7.35;;;8.50;99.90;;;;;;5093226;28;20035;-82
2021/12/30 02:02:17;;;;;;;30.98;6.57;;;8.50;99.90;;;;;;5093166;28;20038;-84
2021/12/30 02:04:43;;;;;;;27.80;5.93;;;8.40;99.90;;;;;;5075807;28;20411;-82
2021/12/30 02:07:09;;;;;;;28.52;6.30;;;8.40;99.90;;;;;;5092779;28;20043;-82
2021/12/30 02:09:35;;;;;;;28.85;6.22;;;8.40;99.90;;;;;;5075983;28;20471;-82
2021/12/30 02:12:01;;;;;;;36.83;8.45;;;8.30;99.90;;;;;;5084799;28;20036;-82
2021/12/30 02:14:34;;;;;;;25.48;8.43;;;8.40;99.90;;;;;;5095002;28;20028;-82
2021/12/30 02:17:00;;;;;;;32.45;8.52;;;8.40;99.90;;;;;;5095629;28;20101;-83
2021/12/30 02:19:26;;;;;;;37.30;9.48;;;8.40;99.90;;;;;;5092734;28;20036;-82
2021/12/30 02:21:52;;;;;;;29.40;7.95;;;8.50;99.90;;;;;;5092226;28;20043;-84
2021/12/30 02:24:17;;;;;;;27.63;5.53;;;8.50;99.90;;;;;;5074802;28;20270;-83
2021/12/30 02:26:43;;;;;;;34.30;6.93;;;8.50;99.90;;;;;;5092329;28;20329;-84
2021/12/30 02:29:09;;;;;;;29.50;7.20;;;8.50;99.90;;;;;;5092290;28;20040;-82
2021/12/30 02:31:34;;;;;;;31.05;7.13;;;8.50;99.90;;;;;;5074724;28;20484;-82
2021/12/30 02:34:00;;;;;;;34.85;6.82;;;8.50;99.90;;;;;;5074962;28;20117;-84
2021/12/30 02:36:33;;;;;;;31.70;7.63;;;8.40;99.90;;;;;;5091713;28;20035;-84
2021/12/30 02:39:02;;;;;;;35.33;8.52;;;8.40;99.90;;;;;;5091944;28;20039;-83
2021/12/30 02:41:32;;;;;;;35.95;8.90;;;8.30;99.90;;;;;;5074671;28;20036;-83
2021/12/30 02:43:58;;;;;;;30.73;8.18;;;8.30;99.90;;;;;;5091490;28;20036;-83
2021/12/30 02:46:28;;;;;;;35.45;8.52;;;8.30;99.90;;;;;;5088683;28;20375;-83
2021/12/30 02:48:54;;;;;;;37.58;8.02;;;8.30;99.90;;;;;;5074339;28;20502;-83
2021/12/30 02:51:21;;;;;;;31.73;8.82;;;8.30;99.90;;;;;;5074132;28;20088;-83
2021/12/30 02:53:48;;;;;;;29.95;8.43;;;8.30;99.90;;;;;;5091673;28;20055;-84
2021/12/30 02:56:14;;;;;;;49.03;12.13;;;8.30;99.90;;;;;;5093423;28;20066;-82
2021/12/30 02:58:40;;;;;;;37.00;11.40;;;8.40;99.90;;;;;;5080105;28;20044;-83
2021/12/30 03:01:09;;;;;;;33.72;12.70;;;8.50;99.90;;;;;;5082807;28;20628;-84
2021/12/30 03:03:35;;;;;;;49.47;13.77;;;8.50;99.90;;;;;;5077874;28;20047;-81
2021/12/30 03:06:05;;;;;;;36.67;15.60;;;8.70;99.90;;;;;;5076341;28;20040;-83
2021/12/30 03:08:32;;;;;;;51.45;15.85;;;8.70;99.90;;;;;;5075867;28;20444;-83
2021/12/30 03:10:58;;;;;;;39.72;15.05;;;8.80;99.90;;;;;;5075424;28;20520;-84
2021/12/30 03:13:32;;;;;;;46.25;16.13;;;8.90;99.90;;;;;;5075364;28;20055;-83
2021/12/30 03:16:03;;;;;;;62.97;19.42;;;9.10;99.90;;;;;;5075335;28;20449;-84
2021/12/30 03:18:34;;;;;;;47.90;16.08;;;9.10;99.90;;;;;;5091757;28;20387;-84
2021/12/30 03:21:00;;;;;;;55.85;19.08;;;9.20;99.90;;;;;;5082527;28;20491;-84
2021/12/30 03:23:26;;;;;;;45.08;17.10;;;9.20;99.90;;;;;;5074976;28;20489;-84
2021/12/30 03:25:52;;;;;;;54.33;16.52;;;9.20;99.90;;;;;;5074786;28;20058;-85
2021/12/30 03:28:18;;;;;;;49.28;19.80;;;9.20;99.90;;;;;;5091509;28;20792;-84
2021/12/30 03:30:44;;;;;;;52.80;19.38;;;9.30;99.90;;;;;;5091214;28;20387;-83
2021/12/30 03:33:10;;;;;;;48.58;19.13;;;9.30;99.90;;;;;;5085846;28;20046;-83
2021/12/30 03:35:35;;;;;;;58.45;20.35;;;9.30;99.90;;;;;;5074285;28;20044;-83
2021/12/30 03:38:01;;;;;;;49.17;19.13;;;9.30;99.90;;;;;;5073937;28;20475;-84
2021/12/30 03:40:27;;;;;;;63.65;19.02;;;9.40;99.90;;;;;;5091220;28;20123;-84
2021/12/30 03:42:52;;;;;;;55.03;20.60;;;9.40;99.90;;;;;;5091007;28;20039;-84
2021/12/30 03:45:18;;;;;;;43.20;18.20;;;9.50;99.90;;;;;;5074296;28;20028;-82
2021/12/30 03:47:47;;;;;;;51.88;19.50;;;9.40;99.90;;;;;;5090842;28;20040;-84
2021/12/30 03:50:20;;;;;;;41.40;18.85;;;9.40;99.90;;;;;;5090683;28;20039;-83
2021/12/30 03:52:49;;;;;;;45.28;17.25;;;9.50;99.90;;;;;;5090855;28;20032;-82
2021/12/30 03:55:17;;;;;;;58.83;18.73;;;9.50;99.90;;;;;;5091183;28;20119;-84
2021/12/30 03:57:44;;;;;;;49.05;19.30;;;9.50;99.90;;;;;;5090439;28;20051;-84
2021/12/30 04:00:11;;;;;;;40.05;17.10;;;9.50;99.90;;;;;;5074018;28;20036;-83
2021/12/30 04:02:37;;;;;;;49.55;18.83;;;9.50;99.90;;;;;;5090068;28;20066;-83
2021/12/30 04:05:04;;;;;;;47.58;17.75;;;9.60;99.90;;;;;;5076075;28;20036;-83
2021/12/30 04:07:29;;;;;;;47.67;18.08;;;9.60;99.90;;;;;;5090155;28;20047;-83
2021/12/30 04:09:55;;;;;;;44.83;15.98;;;9.70;99.90;;;;;;5079771;28;20032;-83
2021/12/30 04:12:20;;;;;;;46.78;17.63;;;9.70;99.90;;;;;;5090597;28;20063;-83
2021/12/30 04:14:46;;;;;;;39.13;19.50;;;9.70;99.90;;;;;;5087392;28;20043;-83
2021/12/30 04:17:12;;;;;;;52.95;17.65;;;9.70;99.90;;;;;;5090826;28;20391;-84
2021/12/30 04:19:37;;;;;;;56.53;17.48;;;9.70;99.90;;;;;;5090197;28;20043;-83
2021/12/30 04:22:03;;;;;;;42.60;17.10;;;9.70;99.90;;;;;;5090275;28;20036;-84
2021/12/30 04:24:28;;;;;;;57.13;18.92;;;9.70;99.90;;;;;;5090486;28;20102;-84
2021/12/30 04:26:54;;;;;;;49.60;18.30;;;9.70;99.90;;;;;;5089922;28;20048;-83
2021/12/30 04:29:20;;;;;;;49.08;17.55;;;9.80;99.90;;;;;;5090293;28;20059;-83
2021/12/30 04:31:47;;;;;;;55.75;18.73;;;9.60;99.90;;;;;;5073512;28;20036;-84
2021/12/30 04:34:13;;;;;;;44.58;16.88;;;9.60;99.90;;;;;;5090562;28;20039;-84
2021/12/30 04:36:39;;;;;;;48.65;16.80;;;9.60;99.90;;;;;;5090343;28;20452;-84
2021/12/30 04:39:06;;;;;;;56.22;19.33;;;9.60;99.90;;;;;;5073284;28;20036;-84
2021/12/30 04:41:31;;;;;;;49.83;19.05;;;9.60;99.90;;;;;;5089781;28;20036;-84
2021/12/30 04:43:57;;;;;;;54.70;20.85;;;9.70;99.90;;;;;;5094376;28;20042;-83
2021/12/30 04:46:23;;;;;;;44.33;18.95;;;9.60;99.90;;;;;;5095477;28;20040;-83
2021/12/30 04:48:49;;;;;;;59.65;20.73;;;9.70;99.90;;;;;;5082372;28;20542;-83
2021/12/30 04:51:16;;;;;;;42.75;18.58;;;9.70;99.90;;;;;;5094954;28;20064;-83
2021/12/30 04:53:42;;;;;;;52.60;20.08;;;9.70;99.90;;;;;;5095073;28;20036;-84
2021/12/30 04:56:08;;;;;;;49.80;19.08;;;9.70;99.90;;;;;;5077766;28;20542;-84
2021/12/30 04:58:34;;;;;;;53.33;19.13;;;9.80;99.90;;;;;;5077551;28;20061;-83
2021/12/30 05:01:00;;;;;;;56.40;18.42;;;9.80;99.90;;;;;;5078090;28;20043;-84
2021/12/30 05:03:26;;;;;;;49.65;18.60;;;9.80;99.90;;;;;;5077605;28;20043;-84
2021/12/30 05:05:52;;;;;;;47.85;19.77;;;9.80;99.90;;;;;;5093845;28;20032;-83
2021/12/30 05:08:20;;;;;;;52.13;19.30;;;9.90;99.90;;;;;;5077555;28;20359;-83
2021/12/30 05:10:47;;;;;;;58.75;20.13;;;9.90;99.90;;;;;;5094033;28;20119;-84
2021/12/30 05:13:14;;;;;;;56.17;21.92;;;10.00;99.90;;;;;;5094038;28;20028;-84
2021/12/30 05:15:40;;;;;;;48.15;19.50;;;10.00;99.90;;;;;;5093792;28;20325;-83
2021/12/30 05:18:09;;;;;;;54.63;19.88;;;10.00;99.90;;;;;;5076995;28;20412;-84
2021/12/30 05:20:36;;;;;;;49.47;21.58;;;10.00;99.90;;;;;;5077261;28;20064;-84
2021/12/30 05:23:02;;;;;;;53.47;23.10;;;10.10;99.90;;;;;;5093959;28;20032;-84
2021/12/30 05:25:28;;;;;;;57.60;18.77;;;10.10;99.90;;;;;;5093996;28;20036;-83
2021/12/30 05:27:54;;;;;;;53.70;21.05;;;10.20;99.90;;;;;;5093395;28;20043;-83
2021/12/30 05:30:24;;;;;;;67.10;25.30;;;10.20;99.90;;;;;;5076553;28;20063;-84
2021/12/30 05:32:51;;;;;;;57.28;23.58;;;10.20;99.90;;;;;;5090888;28;20081;-84
2021/12/30 05:35:17;;;;;;;44.38;18.90;;;10.20;99.90;;;;;;5076676;28;20123;-84
2021/12/30 05:37:43;;;;;;;47.70;19.73;;;10.30;99.90;;;;;;5082449;28;20060;-83
2021/12/30 05:40:14;;;;;;;40.80;18.70;;;10.30;99.90;;;;;;5112049;28;20040;-84
2021/12/30 05:42:39;;;;;;;47.55;19.35;;;10.40;99.90;;;;;;5097262;28;20032;-83
2021/12/30 05:45:06;;;;;;;48.45;21.77;;;10.40;99.90;;;;;;5095019;28;20036;-84
2021/12/30 05:47:33;;;;;;;46.40;20.33;;;10.50;99.90;;;;;;5112485;28;20040;-81
2021/12/30 05:50:00;;;;;;;46.88;21.27;;;10.50;99.90;;;;;;5092459;28;20036;-83
2021/12/30 05:52:25;;;;;;;45.70;19.83;;;10.50;99.90;;;;;;5110955;28;20542;-83
2021/12/30 05:54:51;;;;;;;40.70;21.88;;;10.50;99.90;;;;;;5106993;28;20069;-82
2021/12/30 05:57:16;;;;;;;44.83;20.83;;;10.50;99.90;;;;;;5101667;28;20089;-84
2021/12/30 05:59:42;;;;;;;47.50;21.77;;;10.60;99.90;;;;;;5088371;28;20566;-83
2021/12/30 06:02:07;;;;;;;41.92;21.27;;;10.60;99.90;;;;;;5095425;28;20387;-83
2021/12/30 06:04:33;;;;;;;39.80;19.50;;;10.60;99.90;;;;;;5094652;28;20108;-84
2021/12/30 06:06:58;;;;;;;53.17;21.10;;;10.60;99.90;;;;;;5093989;28;20036;-83
2021/12/30 06:09:26;;;;;;;43.15;21.42;;;10.60;99.90;;;;;;5094179;28;20040;-84
2021/12/30 06:11:52;;;;;;;42.45;20.70;;;10.70;99.90;;;;;;5094351;28;20036;-84
2021/12/30 06:14:18;;;;;;;41.85;19.00;;;10.70;99.90;;;;;;5077509;28;20343;-83
2021/12/30 06:16:44;;;;;;;40.90;21.02;;;10.70;99.90;;;;;;5093490;28;20040;-84
2021/12/30 06:19:09;;;;;;;33.13;20.23;;;10.70;99.90;;;;;;5093819;28;20138;-84
2021/12/30 06:21:35;;;;;;;38.10;18.48;;;10.70;99.90;;;;;;5090364;28;20036;-84
2021/12/30 06:24:00;;;;;;;36.45;17.73;;;10.80;99.90;;;;;;5089349;28;20123;-83
2021/12/30 06:26:26;;;;;;;42.35;20.67;;;10.80;99.90;;;;;;5085180;28;20118;-84
2021/12/30 06:28:52;;;;;;;43.22;21.15;;;10.80;99.90;;;;;;5093524;28;20470;-85
2021/12/30 06:31:17;;;;;;;52.28;23.83;;;10.80;99.90;;;;;;5076883;28;20028;-84
2021/12/30 06:33:43;;;;;;;44.08;22.23;;;10.80;99.90;;;;;;5076506;28;20440;-84
2021/12/30 06:36:10;;;;;;;42.90;22.67;;;10.80;99.90;;;;;;5076076;28;20460;-84
2021/12/30 06:38:36;;;;;;;50.00;23.77;;;10.90;99.90;;;;;;5075816;28;20059;-84
2021/12/30 06:41:02;;;;;;;48.92;23.00;;;10.90;99.90;;;;;;5092612;28;20044;-83
2021/12/30 06:43:28;;;;;;;63.65;26.35;;;10.90;99.90;;;;;;5082488;28;20040;-83
2021/12/30 06:45:53;;;;;;;60.55;26.90;;;10.90;99.90;;;;;;5092045;28;20047;-83
2021/12/30 06:48:19;;;;;;;53.30;26.45;;;10.90;99.90;;;;;;5092305;28;20409;-84
2021/12/30 06:50:51;;;;;;;73.93;29.88;;;10.90;99.90;;;;;;5092012;28;20116;-84
2021/12/30 06:53:22;;;;;;;71.57;30.65;;;10.90;99.90;;;;;;5075389;28;20088;-84
2021/12/30 06:55:48;;;;;;;73.53;28.73;;;10.90;99.90;;;;;;5091727;28;20051;-83
2021/12/30 06:58:15;;;;;;;60.95;28.10;;;10.90;99.90;;;;;;5091851;28;20048;-82
2021/12/30 07:00:40;;;;;;;76.68;30.20;;;11.00;99.90;;;;;;5075191;28;20390;-83
2021/12/30 07:03:06;;;;;;;67.88;29.20;;;11.10;99.90;;;;;;5091941;28;20192;-82
2021/12/30 07:05:33;;;;;;;65.82;27.85;;;11.10;99.90;;;;;;5085828;28;20041;-83
2021/12/30 07:07:59;;;;;;;62.13;26.35;;;11.20;99.90;;;;;;5091680;28;20127;-82
2021/12/30 07:10:25;;;;;;;54.20;23.40;;;11.20;99.90;;;;;;5073812;28;20051;-82
2021/12/30 07:12:50;;;;;;;56.65;21.08;;;11.20;99.90;;;;;;5091946;28;20024;-82
2021/12/30 07:15:16;;;;;;;57.67;24.20;;;11.30;99.90;;;;;;5091055;28;20537;-83
2021/12/30 07:17:41;;;;;;;52.15;21.45;;;11.30;99.90;;;;;;5091337;28;20036;-83
2021/12/30 07:20:08;;;;;;;51.03;20.80;;;11.40;99.90;;;;;;5091932;28;20410;-82
2021/12/30 07:22:34;;;;;;;48.47;20.80;;;11.40;99.90;;;;;;5075564;28;20498;-83
2021/12/30 07:25:00;;;;;;;50.28;21.45;;;11.30;99.90;;;;;;5075115;28;20065;-84
2021/12/30 07:27:26;;;;;;;45.60;20.10;;;11.40;99.90;;;;;;5074448;28;20036;-83
2021/12/30 07:29:51;;;;;;;49.63;19.10;;;11.40;99.90;;;;;;5091330;28;20043;-83
2021/12/30 07:32:17;;;;;;;32.15;16.05;;;11.40;99.90;;;;;;5090180;28;20132;-84
2021/12/30 07:34:43;;;;;;;38.17;16.88;;;11.40;99.90;;;;;;5090225;28;20042;-83
2021/12/30 07:37:08;;;;;;;39.75;18.00;;;11.40;99.90;;;;;;5090504;28;20067;-82
2021/12/30 07:39:34;;;;;;;38.95;15.45;;;11.40;99.90;;;;;;5090454;28;20044;-83
2021/12/30 07:41:59;;;;;;;37.97;16.80;;;11.50;99.90;;;;;;5074876;28;20044;-83
2021/12/30 07:44:25;;;;;;;38.10;14.65;;;11.50;99.90;;;;;;5090741;28;20032;-83
2021/12/30 07:46:51;;;;;;;30.38;13.35;;;11.50;99.90;;;;;;5090167;28;20118;-82
2021/12/30 07:49:16;;;;;;;25.83;12.38;;;11.50;99.90;;;;;;5073859;28;20418;-83
2021/12/30 07:51:42;;;;;;;24.80;10.00;;;11.50;99.90;;;;;;5089662;28;20478;-84
2021/12/30 07:54:07;;;;;;;24.10;11.88;;;11.50;99.90;;;;;;5090248;28;20058;-84
2021/12/30 07:56:33;;;;;;;18.63;9.38;;;11.50;99.90;;;;;;5073921;28;20039;-84
2021/12/30 07:58:58;;;;;;;15.95;8.93;;;11.60;99.90;;;;;;5073408;28;20572;-83
2021/12/30 08:01:24;;;;;;;16.45;7.50;;;11.60;99.90;;;;;;5073274;28;20040;-84
2021/12/30 08:03:50;;;;;;;13.82;6.03;;;11.60;99.90;;;;;;5072882;28;20067;-83
2021/12/30 08:06:15;;;;;;;13.35;5.75;;;11.60;99.90;;;;;;5090061;28;20036;-83
2021/12/30 08:08:41;;;;;;;16.40;6.03;;;11.60;99.90;;;;;;5089978;28;20043;-83
2021/12/30 08:11:07;;;;;;;14.43;5.82;;;11.60;99.90;;;;;;5089771;28;20032;-83
2021/12/30 08:13:32;;;;;;;16.25;6.25;;;11.60;99.90;;;;;;5073345;28;20032;-83
2021/12/30 08:15:58;;;;;;;12.25;5.45;;;11.70;99.90;;;;;;5072385;28;20036;-83
2021/12/30 08:18:24;;;;;;;13.13;6.32;;;11.70;99.90;;;;;;5089082;28;20042;-83
2021/12/30 08:20:49;;;;;;;11.50;6.28;;;11.70;99.90;;;;;;5088461;28;20040;-84
2021/12/30 08:23:15;;;;;;;15.20;7.00;;;11.70;99.90;;;;;;5090742;28;20040;-83
2021/12/30 08:25:41;;;;;;;15.07;7.70;;;11.70;99.90;;;;;;5089957;28;20134;-83
2021/12/30 08:28:07;;;;;;;13.40;6.70;;;11.70;99.90;;;;;;5089407;28;20036;-84
2021/12/30 08:30:33;;;;;;;9.75;5.00;;;11.70;99.90;;;;;;5087412;28;20495;-84
2021/12/30 08:32:59;;;;;;;8.98;5.13;;;11.70;99.90;;;;;;5089669;28;20024;-83
2021/12/30 08:35:25;;;;;;;9.50;5.32;;;11.70;99.90;;;;;;5089417;28;20482;-83
2021/12/30 08:37:54;;;;;;;11.25;5.03;;;11.80;99.90;;;;;;5072030;28;20040;-82
2021/12/30 08:40:20;;;;;;;10.32;4.88;;;11.80;99.90;;;;;;5089798;28;20048;-84
2021/12/30 08:42:46;;;;;;;10.15;5.20;;;11.80;99.90;;;;;;5071643;28;20040;-83
2021/12/30 08:45:12;;;;;;;12.02;5.72;;;11.80;99.90;;;;;;5088898;28;20040;-83
2021/12/30 08:47:39;;;;;;;9.30;5.07;;;11.80;99.90;;;;;;5088344;28;20036;-83
2021/12/30 08:50:08;;;;;;;7.00;3.80;;;11.80;99.90;;;;;;5088989;28;20039;-82
2021/12/30 08:52:34;;;;;;;7.45;3.97;;;11.90;99.90;;;;;;5086689;28;20049;-83
2021/12/30 08:55:04;;;;;;;5.05;3.45;;;11.90;99.90;;;;;;5072777;28;20032;-83
2021/12/30 08:57:29;;;;;;;5.97;2.67;;;11.90;99.90;;;;;;5088751;28;20157;-83
2021/12/30 08:59:55;;;;;;;7.63;3.00;;;11.90;99.90;;;;;;5088589;28;20127;-85
2021/12/30 09:02:21;;;;;;;4.95;1.75;;;12.00;99.90;;;;;;5072965;28;20056;-82
2021/12/30 09:04:47;;;;;;;5.57;2.17;;;12.10;99.90;;;;;;5073520;28;20040;-82
2021/12/30 09:07:16;;;;;;;5.35;2.08;;;12.10;99.90;;;;;;5088635;28;20439;-83
2021/12/30 09:09:43;;;;;;;3.95;1.27;;;12.20;99.90;;;;;;5073320;28;20050;-83
2021/12/30 09:12:09;;;;;;;18.83;10.98;;;12.30;99.90;;;;;;5089154;28;20040;-83
2021/12/30 09:14:35;;;;;;;8.25;3.28;;;12.30;99.90;;;;;;5073666;28;20031;-82
2021/12/30 09:17:01;;;;;;;22.05;12.57;;;12.30;99.90;;;;;;5090265;28;20040;-83
2021/12/30 09:19:27;;;;;;;9.60;4.70;;;12.40;99.90;;;;;;5089762;28;20028;-83
2021/12/30 09:21:52;;;;;;;153.18;109.35;;;12.40;99.90;;;;;;5089265;28;20047;-83
2021/12/30 09:24:18;;;;;;;8.43;3.88;;;12.40;99.90;;;;;;5089688;28;20043;-83
2021/12/30 09:26:44;;;;;;;11.82;4.43;;;12.50;99.90;;;;;;5073414;28;20043;-84
2021/12/30 09:29:12;;;;;;;9.07;4.07;;;12.50;99.90;;;;;;5089458;28;20105;-83
2021/12/30 09:31:40;;;;;;;10.05;3.40;;;12.50;99.90;;;;;;5090350;28;20040;-84
2021/12/30 09:34:06;;;;;;;8.20;3.90;;;12.50;99.90;;;;;;5094205;28;20059;-83
2021/12/30 09:36:32;;;;;;;11.60;3.88;;;12.60;99.90;;;;;;5094076;28;20525;-83
2021/12/30 09:38:59;;;;;;;7.65;3.33;;;12.60;99.90;;;;;;5093962;28;20036;-83
2021/12/30 09:41:24;;;;;;;15.38;6.72;;;12.60;99.90;;;;;;5094077;28;20051;-83
2021/12/30 09:43:50;;;;;;;8.63;3.13;;;12.60;99.90;;;;;;5094840;28;20035;-82
2021/12/30 09:46:17;;;;;;;10.85;5.28;;;12.60;99.90;;;;;;5096195;28;20101;-84
2021/12/30 09:48:43;;;;;;;7.85;2.83;;;12.60;99.90;;;;;;5095170;28;20043;-83
2021/12/30 09:51:09;;;;;;;9.30;3.53;;;12.70;99.90;;;;;;5095111;28;20036;-83
2021/12/30 09:53:35;;;;;;;10.20;3.72;;;12.70;99.90;;;;;;5094691;28;20517;-83
2021/12/30 09:56:01;;;;;;;9.27;4.15;;;12.60;99.90;;;;;;5094784;28;20118;-84
2021/12/30 09:58:27;;;;;;;11.52;4.22;;;12.60;99.90;;;;;;5094356;28;20044;-84
2021/12/30 10:00:54;;;;;;;9.63;4.20;;;12.70;99.90;;;;;;5076183;28;20036;-84
2021/12/30 10:03:20;;;;;;;10.50;4.13;;;12.60;99.90;;;;;;5092096;28;20112;-84
2021/12/30 10:05:46;;;;;;;8.70;3.78;;;12.70;99.90;;;;;;5092684;28;20070;-83
2021/12/30 10:08:16;;;;;;;10.23;3.58;;;12.70;99.90;;;;;;5076148;28;20047;-82
2021/12/30 10:10:48;;;;;;;8.18;3.50;;;12.70;99.90;;;;;;5076224;28;20091;-82
2021/12/30 10:13:18;;;;;;;17.17;4.82;;;12.70;99.90;;;;;;5092723;28;20124;-82
2021/12/30 10:15:45;;;;;;;9.98;3.42;;;12.70;99.90;;;;;;5093331;28;20630;-82
2021/12/30 10:18:11;;;;;;;9.63;3.72;;;12.70;99.90;;;;;;5092643;28;20035;-83
2021/12/30 10:20:39;;;;;;;8.18;3.50;;;12.60;99.90;;;;;;5074409;28;20111;-83
2021/12/30 10:23:11;;;;;;;8.98;4.45;;;12.70;99.90;;;;;;5092883;28;20051;-82
2021/12/30 10:25:40;;;;;;;11.02;5.15;;;12.60;99.90;;;;;;5076451;28;20568;-82
2021/12/30 10:28:19;;;;;;;8.45;3.17;;;12.70;99.90;;;;;;5076233;28;20050;-84
2021/12/30 10:30:45;;;;;;;8.20;1.60;;;12.70;99.90;;;;;;5075339;28;20036;-83
2021/12/30 10:33:12;;;;;;;9.48;1.50;;;12.60;99.90;;;;;;5092757;28;20032;-83
2021/12/30 10:35:38;;;;;;;7.63;2.33;;;12.60;99.90;;;;;;5092087;28;20032;-82
2021/12/30 10:38:08;;;;;;;10.10;2.20;;;12.70;99.90;;;;;;5091781;28;20391;-81
2021/12/30 10:40:35;;;;;;;6.00;1.83;;;12.60;99.90;;;;;;5090225;28;20390;-81
2021/12/30 10:43:28;;;;;;;6.32;1.13;;;12.60;99.90;;;;;;5075037;28;20058;-83
2021/12/30 10:46:22;;;;;;;5.07;1.58;;;12.60;99.90;;;;;;5092218;28;20090;-84
2021/12/30 10:49:13;;;;;;;4.43;1.70;;;12.60;99.90;;;;;;5073492;28;20084;-84
2021/12/30 10:51:48;;;;;;;7.70;2.83;;;12.70;99.90;;;;;;5079461;28;20590;-82
2021/12/30 10:54:21;;;;;;;8.20;2.40;;;12.60;99.90;;;;;;5075620;28;20264;-82
2021/12/30 10:56:56;;;;;;;10.10;2.50;;;12.60;99.90;;;;;;5070935;28;20072;-83
2021/12/30 10:59:31;;;;;;;11.90;2.53;;;12.60;99.90;;;;;;5075937;28;20035;-83
2021/12/30 11:02:12;;;;;;;14.07;3.87;;;12.60;99.90;;;;;;5072828;28;20044;-83
2021/12/30 11:04:46;;;;;;;12.05;3.25;;;12.60;99.90;;;;;;5094141;28;20054;-80
2021/12/30 11:07:14;;;;;;;12.30;4.63;;;12.60;99.90;;;;;;5116751;28;20035;-82
2021/12/30 11:09:49;;;;;;;11.98;4.07;;;12.60;99.90;;;;;;5116472;28;20024;-84
2021/12/30 11:12:16;;;;;;;11.25;3.50;;;12.60;99.90;;;;;;5114209;28;20044;-81
2021/12/30 11:14:41;;;;;;;13.38;3.95;;;12.60;99.90;;;;;;5115510;28;20032;-80
2021/12/30 11:17:13;;;;;;;18.25;4.88;;;12.70;99.90;;;;;;5095223;28;20104;-80
2021/12/30 11:19:52;;;;;;;12.32;3.90;;;12.60;99.90;;;;;;5116140;28;20020;-80
2021/12/30 11:22:21;;;;;;;10.63;4.30;;;12.60;99.90;;;;;;5089764;28;20040;-82
2021/12/30 11:24:48;;;;;;;15.00;4.57;;;12.70;99.90;;;;;;5076692;28;20039;-83
2021/12/30 11:27:15;;;;;;;13.02;3.67;;;12.60;99.90;;;;;;5094784;28;20067;-82
2021/12/30 11:29:45;;;;;;;19.92;5.55;;;12.60;99.90;;;;;;5093346;28;20040;-82
2021/12/30 11:32:18;;;;;;;16.45;4.68;;;12.60;99.90;;;;;;5091496;28;20071;-84
2021/12/30 11:34:47;;;;;;;10.07;3.13;;;12.60;99.90;;;;;;5089466;28;20040;-83
2021/12/30 11:37:15;;;;;;;11.50;3.67;;;12.60;99.90;;;;;;5091959;28;20036;-82
2021/12/30 11:39:43;;;;;;;11.75;3.30;;;12.60;99.90;;;;;;5088045;28;20074;-82
2021/12/30 11:42:18;;;;;;;15.23;4.30;;;12.60;99.90;;;;;;5073915;28;20039;-84
2021/12/30 11:44:50;;;;;;;12.30;2.97;;;12.60;99.90;;;;;;5092252;28;20047;-83
2021/12/30 11:47:34;;;;;;;15.25;4.25;;;12.60;99.90;;;;;;5072032;28;20290;-84
2021/12/30 11:50:10;;;;;;;14.15;4.13;;;12.60;99.90;;;;;;5091392;28;20100;-84
2021/12/30 11:52:59;;;;;;;20.75;5.53;;;12.60;99.90;;;;;;5092231;28;20067;-83
2021/12/30 11:55:42;;;;;;;18.58;4.72;;;12.60;99.90;;;;;;5082759;28;20036;-83
2021/12/30 12:00:56;;;;;;;17.40;5.32;;;12.60;99.90;;;;;;5091542;28;20048;-82
2021/12/30 12:03:41;;;;;;;17.35;4.95;;;12.60;99.90;;;;;;5089954;28;20035;-83
2021/12/30 12:06:25;;;;;;;19.35;5.53;;;12.60;99.90;;;;;;5091008;28;20036;-84
2021/12/30 12:08:58;;;;;;;19.60;5.18;;;12.60;99.90;;;;;;5075108;28;20083;-83
2021/12/30 12:11:42;;;;;;;19.40;5.05;;;12.60;99.90;;;;;;5074333;28;20035;-84
2021/12/30 12:14:21;;;;;;;18.65;5.50;;;12.60;99.90;;;;;;5091158;28;20545;-82
2021/12/30 12:17:08;;;;;;;20.42;5.45;;;12.60;99.90;;;;;;5074455;28;20089;-83
2021/12/30 12:19:44;;;;;;;12.15;5.53;;;12.60;99.90;;;;;;5074547;28;20031;-84
2021/12/30 12:22:30;;;;;;;22.15;5.75;;;12.60;99.90;;;;;;5089974;28;20172;-82
2021/12/30 12:25:26;;;;;;;20.10;5.93;;;12.60;99.90;;;;;;5086629;28;20047;-83
2021/12/30 12:27:54;;;;;;;14.75;5.40;;;12.50;99.90;;;;;;5082746;28;20066;-83
2021/12/30 12:30:29;;;;;;;16.10;5.15;;;12.60;99.90;;;;;;5073694;28;20032;-83
2021/12/30 12:32:55;;;;;;;;;;;12.60;99.90;;;;;;5072206;28;20040;-82
2021/12/30 12:35:21;;;;;;;14.90;4.57;;;12.60;99.90;;;;;;5074523;28;19922;-82
2021/12/30 12:37:50;;;;;;;16.65;4.22;;;12.60;99.90;;;;;;5073392;28;20048;-83
2021/12/30 12:40:16;;;;;;;16.15;4.05;;;12.60;99.90;;;;;;5091130;28;20069;-83
2021/12/30 12:42:53;;;;;;;20.10;4.47;;;12.60;99.90;;;;;;5090622;28;20048;-84
2021/12/30 12:45:23;;;;;;;19.38;5.68;;;12.70;99.90;;;;;;5090888;28;20043;-83
2021/12/30 12:48:17;;;;;;;14.30;3.90;;;12.70;99.90;;;;;;5073982;28;20422;-84